地図

経路データ

SID SEASON NUMBER BASIN SUBBASIN NAME ISO_TIME NATURE LAT LON WMO_WIND WMO_PRES WMO_AGENCY TRACK_TYPE DIST2LAND LANDFALL IFLAG USA_AGENCY USA_ATCF_ID USA_LAT USA_LON USA_RECORD USA_STATUS USA_WIND USA_PRES USA_SSHS USA_R34_NE USA_R34_SE USA_R34_SW USA_R34_NW USA_R50_NE USA_R50_SE USA_R50_SW USA_R50_NW USA_R64_NE USA_R64_SE USA_R64_SW USA_R64_NW USA_POCI USA_ROCI USA_RMW USA_EYE TOKYO_LAT TOKYO_LON TOKYO_GRADE TOKYO_WIND TOKYO_PRES TOKYO_R50_DIR TOKYO_R50_LONG TOKYO_R50_SHORT TOKYO_R30_DIR TOKYO_R30_LONG TOKYO_R30_SHORT TOKYO_LAND CMA_LAT CMA_LON CMA_CAT CMA_WIND CMA_PRES HKO_LAT HKO_LON HKO_CAT HKO_WIND HKO_PRES NEWDELHI_LAT NEWDELHI_LON NEWDELHI_GRADE NEWDELHI_WIND NEWDELHI_PRES NEWDELHI_CI NEWDELHI_DP NEWDELHI_POCI REUNION_LAT REUNION_LON REUNION_TYPE REUNION_WIND REUNION_PRES REUNION_TNUM REUNION_CI REUNION_RMW REUNION_R34_NE REUNION_R34_SE REUNION_R34_SW REUNION_R34_NW REUNION_R50_NE REUNION_R50_SE REUNION_R50_SW REUNION_R50_NW REUNION_R64_NE REUNION_R64_SE REUNION_R64_SW REUNION_R64_NW BOM_LAT BOM_LON BOM_TYPE BOM_WIND BOM_PRES BOM_TNUM BOM_CI BOM_RMW BOM_R34_NE BOM_R34_SE BOM_R34_SW BOM_R34_NW BOM_R50_NE BOM_R50_SE BOM_R50_SW BOM_R50_NW BOM_R64_NE BOM_R64_SE BOM_R64_SW BOM_R64_NW BOM_ROCI BOM_POCI BOM_EYE BOM_POS_METHOD BOM_PRES_METHOD NADI_LAT NADI_LON NADI_CAT NADI_WIND NADI_PRES WELLINGTON_LAT WELLINGTON_LON WELLINGTON_WIND WELLINGTON_PRES DS824_LAT DS824_LON DS824_STAGE DS824_WIND DS824_PRES TD9636_LAT TD9636_LON TD9636_STAGE TD9636_WIND TD9636_PRES TD9635_LAT TD9635_LON TD9635_WIND TD9635_PRES TD9635_ROCI NEUMANN_LAT NEUMANN_LON NEUMANN_CLASS NEUMANN_WIND NEUMANN_PRES MLC_LAT MLC_LON MLC_CLASS MLC_WIND MLC_PRES USA_GUST BOM_GUST BOM_GUST_PER REUNION_GUST REUNION_GUST_PER USA_SEAHGT USA_SEARAD_NE USA_SEARAD_SE USA_SEARAD_SW USA_SEARAD_NW STORM_SPEED STORM_DIR
1968094S08156 1968 24 SP EA GISELE:GISELLE 1968-04-02 23:00:00 NR -8.10000 156.300 1002 bom main 101 90 ______O_______ -1 -8.10000 156.300 1002 8 72
1968094S08156 1968 24 SP EA GISELE:GISELLE 1968-04-03 00:00:00 TS -8.05940 156.427 main 90 64 ______P_OO__O_ -1 -8.04851 156.418 1002 -8.00000 156.400 25 1002 -8.10000 156.400 TC 25 1002 -8.10000 156.500 TC 25 1002 7 68
1968094S08156 1968 24 SP EA GISELE:GISELLE 1968-04-03 03:00:00 TS -7.91047 156.766 main 62 44 ______P_PP__P_ -1 -7.89802 156.771 1002 -7.86574 156.687 25 1002 -7.93928 156.753 TC 25 1002 -7.94505 156.848 TC 25 1002 7 67
1968094S08156 1968 24 SP EA GISELE:GISELLE 1968-04-03 06:00:00 TS -7.76945 157.103 main 44 33 ______P_PP__O_ -1 -7.76235 157.122 1002 -7.72511 156.980 25 1002 -7.79272 157.105 TC 25 1002 -7.80000 157.200 TC 25 1002 7 68
1968094S08156 1968 24 SP EA GISELE:GISELLE 1968-04-03 09:00:00 TS -7.64427 157.441 main 22 22 ______P_PP__P_ -1 -7.65285 157.470 1002 -7.57193 157.282 25 1002 -7.67481 157.455 TC 25 1002 -7.67749 157.557 TC 25 1002 7 71
1968094S08156 1968 24 SP EA GISELE:GISELLE 1968-04-03 11:00:00 TS -7.57458 157.667 1003 bom main 24 24 ______O_PP__P_ -1 -7.60000 157.700 1003 -7.45977 157.492 25 1002 -7.61925 157.685 TC 25 1002 -7.61928 157.789 TC 25 1002 7 73
1968094S08156 1968 24 SP EA GISELE:GISELLE 1968-04-03 12:00:00 TS -7.54520 157.779 main 24 24 ______P_OO__O_ -1 -7.58081 157.814 1003 -7.40000 157.600 25 1002 -7.60000 157.800 TC 25 1003 -7.60000 157.900 TC 25 1003 7 78
1968094S08156 1968 24 SP EA GISELE:GISELLE 1968-04-03 15:00:00 TS -7.48063 158.107 main 45 15 ______P_PP__P_ -1 -7.55327 158.152 1003 -7.21248 157.936 25 1002 -7.57932 158.140 TC 25 1003 -7.57745 158.200 TC 25 1003 7 82
1968094S08156 1968 24 SP EA GISELE:GISELLE 1968-04-03 18:00:00 TS -7.45767 158.435 main 15 11 ______P_PP__O_ -1 -7.57077 158.481 1003 -7.04997 158.286 25 1002 -7.60994 158.472 TC 25 1003 -7.60000 158.500 TC 25 1003 7 90
1968094S08156 1968 24 SP EA GISELE:GISELLE 1968-04-03 21:00:00 TS -7.47722 158.773 main 15 15 ______P_PP__P_ -1 -7.63330 158.797 1003 -6.96247 158.642 25 1002 -7.68558 158.793 TC 25 1003 -7.62752 158.858 TC 25 1003 7 97
1968094S08156 1968 24 SP EA GISELE:GISELLE 1968-04-03 23:00:00 TS -7.52444 158.993 1003 bom main 31 31 ______O_PP__P_ -1 -7.70000 159.000 1003 -6.97051 158.881 25 1002 -7.75794 159.000 TC 25 1003 -7.66930 159.092 TC 25 1003 13 89
1968094S08156 1968 24 SP EA GISELE:GISELLE 1968-04-04 00:00:00 TS -7.46939 159.416 main 55 55 O_____P_OOO_O_ jtwc_sh SH321968 -7.00000 161.100 -1 -7.72958 159.102 1002 -7.00000 159.000 25 1002 -7.80000 159.100 TC 25 1003 -7.00000 161.100 4 -7.70000 159.200 TC 25 1003 12 99
1968094S08156 1968 24 SP EA GISELE:GISELLE 1968-04-04 03:00:00 TS -7.65761 159.816 main 55 46 P_____P_PPP_P_ SH321968 -7.56503 160.893 -1 -7.84786 159.399 1002 -7.20042 159.382 25 1001 -7.90654 159.406 TC 26 1002 -7.53916 160.897 4 -7.82744 159.458 TC 25 1002 8 128
1968094S08156 1968 24 SP MM GISELE:GISELLE 1968-04-04 06:00:00 TS -7.96640 160.066 main 40 31 O_____P_PPP_O_ jtwc_sh SH321968 -8.10000 160.700 -1 -8.01284 159.679 1001 -7.52768 159.759 25 1001 -8.05249 159.695 TC 27 1001 -8.06266 160.705 4 -8.00000 159.700 TC 25 1001 8 148
1968094S08156 1968 24 SP MM GISELE:GISELLE 1968-04-04 09:00:00 TS -8.32867 160.232 main 33 33 P_____P_PPP_P_ SH321968 -8.57998 160.535 -1 -8.22761 159.939 1000 -7.94108 160.107 25 1000 -8.24719 159.962 TC 28 1000 -8.55481 160.536 4 -8.17002 160.008 TC 27 1000 8 159
1968094S08156 1968 24 SP MM GISELE:GISELLE 1968-04-04 11:00:00 TS -8.56541 160.295 main 44 44 P_____O_PPP_P_ SH321968 -8.86666 160.442 -1 -8.40000 160.100 1000 -8.24447 160.310 25 1000 -8.40870 160.124 TC 29 1000 -8.85778 160.441 4 -8.31359 160.209 TC 29 1000 7 165
1968094S08156 1968 24 SP MM GISELE:GISELLE 1968-04-04 12:00:00 TS -8.68281 160.326 25 1000 wellington main 45 39 O_____P_OOO_O_ jtwc_sh SH321968 -9.00000 160.400 -1 -8.47966 160.182 1000 -8.40000 160.400 25 1000 -8.50000 160.200 TC 30 1000 -9.00000 160.400 4 -8.40000 160.300 TC 30 1000 7 167
1968094S08156 1968 24 SP MM GISELE:GISELLE 1968-04-04 15:00:00 TS -9.02689 160.398 main 43 11 P_____P_PPP_P_ SH321968 -9.35749 160.263 -1 -8.75165 160.412 1000 -8.82673 160.612 25 1000 -8.77688 160.416 TC 30 1000 -9.39050 160.309 4 -8.72746 160.515 TC 30 1000 7 168
1968094S08156 1968 24 SP MM GISELE:GISELLE 1968-04-04 18:00:00 TS -9.39107 160.480 main 11 0 O_____P_PPP_O_ jtwc_sh SH321968 -9.70000 160.200 -1 -9.08279 160.618 1000 -9.28984 160.768 25 1000 -9.11503 160.603 TC 30 1000 -9.74980 160.273 4 -9.10000 160.700 TC 30 1000 8 166
1968094S08156 1968 24 SP MM GISELE:GISELLE 1968-04-04 21:00:00 TS -9.78085 160.594 main 0 0 P_____P_PPP_P_ SH321968 -10.0775 160.248 -1 -9.48554 160.797 1000 -9.78303 160.890 25 1000 -9.52066 160.763 TC 30 1000 -10.1092 160.300 4 -9.41252 160.915 TC 30 1000 9 164
1968094S08156 1968 24 SP MM GISELE:GISELLE 1968-04-04 23:00:00 TS -10.0688 160.686 main 22 22 P_____O_PPP_P_ SH321968 -10.3526 160.339 -1 -9.80000 160.900 1000 -10.1254 160.963 25 1000 -9.83165 160.857 TC 30 1000 -10.3643 160.358 4 -9.65479 161.045 TC 30 1000 9 163
1968094S08156 1968 24 SP MM GISELE:GISELLE 1968-04-05 00:00:00 TS -10.2241 160.736 25 1000 wellington main 33 33 O_____P_OOO_O_ jtwc_sh SH321968 -10.5000 160.400 -1 -9.96900 160.952 999 -10.3000 161.000 25 1000 -10.0000 160.900 TC 30 1000 -10.5000 160.400 4 -9.80000 161.100 TC 30 1000 11 162
1968094S08156 1968 24 SP MM GISELE:GISELLE 1968-04-05 03:00:00 TS -10.7409 160.901 main 62 62 P_____P_PPP_P_ SH321968 -10.9850 160.627 -1 -10.5356 161.087 999 -10.8163 161.132 27 998 -10.5451 161.038 TC 31 999 -10.9642 160.582 4 -10.3550 161.215 TC 30 999 11 163
1968094S08156 1968 24 SP MM GISELE:GISELLE 1968-04-05 06:00:00 TS -11.3068 161.076 main 89 89 O_____P_PPP_O_ jtwc_sh SH321968 -11.5000 160.900 -1 -11.1697 161.191 998 -11.3550 161.258 30 997 -11.1601 161.152 TC 32 999 -11.4627 160.832 4 -11.0000 161.300 TC 30 999 12 164
1968094S08156 1968 24 SP MM GISELE:GISELLE 1968-04-05 09:00:00 TS -11.8860 161.245 main 139 134 P_____P_PPP_P_ SH321968 -12.0000 161.150 -1 -11.8431 161.267 998 -11.9163 161.379 32 996 -11.8201 161.241 TC 33 998 -11.9799 161.116 4 -11.6425 161.415 TC 32 998 12 165
1968094S08156 1968 24 SP MM GISELE:GISELLE 1968-04-05 11:00:00 TS -12.2786 161.352 main 173 173 P_____O_PPP_P_ SH321968 -12.3333 161.317 -1 -12.3000 161.300 998 -12.3029 161.460 34 995 -12.2727 161.284 TC 34 998 -12.3272 161.308 4 -12.0807 161.478 TC 34 998 12 165
1968094S08156 1968 24 SP MM GISELE:GISELLE 1968-04-05 12:00:00 TS -12.4740 161.401 35 995 wellington main 195 195 O_____P_OOO_O_ jtwc_sh SH321968 -12.5000 161.400 -1 -12.5183 161.308 997 -12.5000 161.500 35 995 -12.5000 161.300 TC 35 998 -12.5000 161.400 4 -12.3000 161.500 TC 35 998 12 167
1968094S08156 1968 24 SP MM GISELE:GISELLE 1968-04-05 15:00:00 TS -13.0529 161.535 main 259 259 P_____P_PPP_P_ SH321968 -13.0000 161.658 -1 -13.1842 161.305 997 -13.1237 161.645 35 994 -13.1606 161.305 TC 35 997 -12.9595 161.657 4 -12.9425 161.515 TC 35 997 12 168
1968094S08156 1968 24 SP MM GISELE:GISELLE 1968-04-05 18:00:00 TS -13.6410 161.652 main 313 313 O_____P_PPP_O_ jtwc_sh SH321968 -13.5000 161.900 -1 -13.8617 161.288 996 -13.7650 161.787 35 993 -13.8350 161.286 TC 35 997 -13.4252 161.903 4 -13.6000 161.500 TC 35 997 12 169
1968094S08156 1968 24 SP MM GISELE:GISELLE 1968-04-05 21:00:00 TS -14.2327 161.760 main 380 380 P_____P_PPP_P_ SH321968 -13.9700 162.123 -1 -14.5447 161.283 996 -14.3988 161.911 35 992 -14.5168 161.274 TC 35 996 -13.9283 162.122 4 -14.3000 161.485 TC 35 996 12 171
1968094S08156 1968 24 SP MM GISELE:GISELLE 1968-04-05 23:00:00 TS -14.6383 161.827 main 425 425 P_____O_PPP_P_ SH321968 -14.3105 162.247 -1 -15.0000 161.300 996 -14.8048 161.975 35 992 -14.9725 161.285 TC 35 996 -14.2999 162.246 4 -14.7698 161.489 TC 35 996 13 171
1968094S08156 1968 24 SP MM GISELE:GISELLE 1968-04-06 00:00:00 TS -14.8471 161.860 35 992 wellington main 447 447 O_____P_OOO_O_ jtwc_sh SH321968 -14.5000 162.300 -1 -15.2299 161.322 995 -15.0000 162.000 35 992 -15.2000 161.300 TC 35 996 -14.5000 162.300 4 -15.0000 161.500 TC 35 996 13 172
1968094S08156 1968 24 SP MM GISELE:GISELLE 1968-04-06 03:00:00 TS -15.5004 161.955 main 489 489 P_____P_PPP_P_ SH321968 -15.1550 162.423 -1 -15.9216 161.416 994 -15.5236 162.017 37 990 -15.8912 161.402 TC 37 995 -15.2064 162.430 4 -15.6500 161.578 TC 37 995 14 172
1968094S08156 1968 24 SP MM GISELE:GISELLE 1968-04-06 06:00:00 TS -16.1827 162.044 main 499 425 O_____P_PPP_O_ jtwc_sh SH321968 -15.9000 162.500 -1 -16.6068 161.543 993 -16.0149 162.001 40 989 -16.5800 161.547 TC 40 994 -15.9774 162.518 4 -16.3000 161.700 TC 40 994 14 173
1968094S08156 1968 24 SP MM GISELE:GISELLE 1968-04-06 09:00:00 TS -16.8921 162.134 main 425 381 P_____P_PPP_P_ SH321968 -16.7225 162.565 -1 -17.2728 161.692 992 -16.4987 161.985 42 988 -17.2537 161.718 TC 42 993 -16.7597 162.571 4 -17.0150 161.842 TC 42 993 14 173
1968094S08156 1968 24 SP MM GISELE:GISELLE 1968-04-06 11:00:00 TS -17.3533 162.193 main 371 362 P_____O_PPP_P_ SH321968 -17.2566 162.592 -1 -17.7000 161.800 992 -16.8294 161.990 44 987 -17.6884 161.839 TC 44 992 -17.2612 162.592 4 -17.4812 161.947 TC 44 992 14 173
1968094S08156 1968 24 SP MM GISELE:GISELLE 1968-04-06 12:00:00 TS -17.5723 162.220 45 987 wellington main 352 301 O_____P_OOO_O_ jtwc_sh SH321968 -17.5000 162.600 -1 -17.9062 161.840 991 -17.0000 162.000 45 987 -17.9000 161.900 TC 45 992 -17.5000 162.600 4 -17.7000 162.000 TC 45 992 12 174
1968094S08156 1968 24 SP MM GISELE:GISELLE 1968-04-06 15:00:00 TS -18.1516 162.279 main 292 252 P_____P_PPP_P_ SH321968 -18.0800 162.608 -1 -18.5033 161.968 990 -17.5370 162.049 47 985 -18.5074 162.019 TC 46 990 -18.0885 162.559 4 -18.2650 162.143 TC 47 990 11 174
1968094S08156 1968 24 SP MM GISELE:GISELLE 1968-04-06 18:00:00 TS -18.6992 162.346 main 252 207 O_____P_PPP_O_ jtwc_sh SH321968 -18.6000 162.600 -1 -19.0757 162.122 988 -18.0972 162.139 50 984 -19.0869 162.153 TC 47 989 -18.6345 162.506 4 -18.8000 162.300 TC 50 989 11 173
1968094S08156 1968 24 SP MM GISELE:GISELLE 1968-04-06 21:00:00 TS -19.2682 162.432 main 201 175 P_____P_PPP_P_ SH321968 -19.1624 162.556 -1 -19.6326 162.325 987 -18.6837 162.284 52 983 -19.6480 162.335 TC 48 987 -19.1882 162.500 4 -19.3999 162.470 TC 52 987 12 170
1968094S08156 1968 24 SP MM GISELE:GISELLE 1968-04-06 23:00:00 TS -19.6637 162.531 main 170 156 P_____O_PPP_P_ SH321968 -19.5745 162.566 -1 -20.0000 162.500 986 -19.0911 162.419 54 982 -20.0164 162.500 TC 49 986 -19.5865 162.551 4 -19.8030 162.614 TC 54 986 12 165
1968094S08156 1968 24 SP MM GISELE:GISELLE 1968-04-07 00:00:00 TS -19.8675 162.599 55 982 wellington main 152 116 O_____P_OOO_O_ jtwc_sh SH321968 -19.8000 162.600 -1 -20.1724 162.592 985 -19.3000 162.500 55 982 -20.2000 162.600 TC 50 986 -19.8000 162.600 4 -20.0000 162.700 TC 55 986 14 159
1968094S08156 1968 24 SP MM GISELE:GISELLE 1968-04-07 03:00:00 TS -20.5065 162.884 main 116 109 P_____P_PPP_P_ SH321968 -20.5699 162.825 -1 -20.7008 162.922 982 -19.9341 162.783 55 981 -20.7504 162.969 TC 55 983 -20.5841 162.863 4 -20.4975 163.021 TC 57 983 14 156
1968094S08156 1968 24 SP MM GISELE:GISELLE 1968-04-07 05:00:00 TS -20.9627 163.126 main 122 114 P_____O_PPP_P_ SH321968 -21.1228 163.062 -1 -21.1000 163.200 980 4 -20.3733 163.013 55 981 -21.1169 163.253 TC 58 980 -21.1411 163.103 4 -20.8736 163.270 TC 59 980 16 154
1968094S08156 1968 24 SP MM GISELE:GISELLE 1968-04-07 06:00:00 TS -21.2012 163.253 main 121 121 O_____P_POP_O_ jtwc_sh SH321968 -21.4000 163.200 -1 -21.3233 163.358 980 -20.5975 163.139 55 981 -21.3000 163.400 TC 60 980 -21.4226 163.240 4 -21.1000 163.400 TC 60 980 17 154
1968094S08156 1968 24 SP MM GISELE:GISELLE 1968-04-07 08:00:00 TS -21.7420 163.528 main 137 137 P_____O_P_P_P_ SH321968 -21.9714 163.501 -1 -21.8000 163.700 980 -21.0545 163.407 55 980 TC -21.9794 163.538 4 -21.7189 163.648 TC 63 18 155
1968094S08156 1968 24 SP MM GISELE:GISELLE 1968-04-07 09:00:00 TS -22.0199 163.673 main 140 140 P_______P_P_P_ SH321968 -22.2526 163.669 -1 -21.2871 163.550 55 980 TC -22.2498 163.697 4 -22.0574 163.777 TC 65 18 151
1968094S08156 1968 24 SP MM GISELE:GISELLE 1968-04-07 12:00:00 TS -22.8000 164.160 55 980 wellington main 172 172 O_______O_O_O_ jtwc_sh SH321968 -23.0000 164.200 -1 -22.0000 164.000 55 980 -23.0000 164.200 4 -23.0000 164.200 TC 70 16 146
1968094S08156 1968 24 SP MM GISELE:GISELLE 1968-04-07 15:00:00 TS -23.3548 164.633 main 208 202 P_______P_P_P_ SH321968 -23.4872 164.694 -1 -22.7281 164.449 55 980 -23.5039 164.651 4 -23.5673 164.678 TC 67 14 139
1968094S08156 1968 24 SP MM GISELE:GISELLE 1968-04-07 18:00:00 TS -23.8430 165.135 main 213 213 O_______P_P_O_ jtwc_sh SH321968 -23.9000 165.200 -1 -23.4770 164.934 55 980 -23.9382 165.140 4 -24.0000 165.200 TC 65 14 137
1968094S08156 1968 24 SP MM GISELE:GISELLE 1968-04-07 21:00:00 TS -24.3598 165.652 main 245 245 P_______P_P_P_ SH321968 -24.3670 165.707 -1 -24.2374 165.453 55 980 -24.4035 165.684 4 -24.4245 165.707 TC 65 15 139
1968094S08156 1968 24 SP MM GISELE:GISELLE 1968-04-08 00:00:00 TS -25.0000 166.240 55 980 wellington main 295 293 O_______O_O_O_ jtwc_sh SH321968 -25.0000 166.300 -1 -25.0000 166.000 55 980 -25.0000 166.300 4 -25.0000 166.300 TC 65 19 142
1968094S08156 1968 24 SP MM GISELE:GISELLE 1968-04-08 03:00:00 TS -25.8771 166.956 main 391 391 P_______P_P_P_ SH321968 -25.9327 167.062 -1 -25.7085 166.548 55 980 -25.8865 167.048 4 -25.9252 167.062 TC 65 23 144
1968094S08156 1968 24 SP MM GISELE:GISELLE 1968-04-08 06:00:00 TS -26.8658 167.739 main 509 509 O_______P_P_O_ jtwc_sh SH321968 -27.0000 167.900 -1 -26.4236 167.125 55 980 -26.9055 167.869 4 -27.0000 167.900 TC 65 24 145
1968094S08156 1968 24 SP MM GISELE:GISELLE 1968-04-08 09:00:00 TS -27.8476 168.527 main 624 624 P_______P_P_P_ SH321968 -28.0300 168.730 -1 -27.1769 167.740 55 980 -27.9713 168.708 4 -28.0300 168.730 TC 65 24 145
1968094S08156 1968 24 SP MM GISELE:GISELLE 1968-04-08 12:00:00 TS -28.8000 169.280 55 980 wellington main 708 602 O_______O_O_O_ jtwc_sh SH321968 -29.0000 169.500 -1 -28.0000 168.400 55 980 -29.0000 169.500 4 -29.0000 169.500 TC 65 22 146
1968094S08156 1968 24 SP MM GISELE:GISELLE 1968-04-08 15:00:00 TS -29.6334 169.926 main 602 497 P_______P_P_P_ SH321968 -29.8217 170.132 -1 -28.8877 169.124 55 979 -29.8140 170.107 4 -29.8217 170.132 TC 62 20 147
1968094S08156 1968 24 SP MM GISELE:GISELLE 1968-04-08 18:00:00 TS -30.4483 170.531 main 497 393 O_______P_P_O_ jtwc_sh SH321968 -30.6000 170.700 -1 -29.8503 169.895 55 979 -30.5910 170.662 4 -30.6000 170.700 TC 60 20 148
1968094S08156 1968 24 SP MM GISELE:GISELLE 1968-04-08 21:00:00 TS -31.2948 171.132 main 383 266 P_______P_P_P_ SH321968 -31.3963 171.244 -1 -30.8876 170.694 55 978 -31.3978 171.235 4 -31.3963 171.244 TC 60 21 148
1968094S08156 1968 24 SP MM GISELE:GISELLE 1968-04-09 00:00:00 TS -32.2400 171.820 55 978 wellington main 266 133 O_______O_O_O_ jtwc_sh SH321968 -32.3000 171.900 -1 -32.0000 171.500 55 978 -32.3000 171.900 4 -32.3000 171.900 TC 60 25 146
1968094S08156 1968 24 SP MM GISELE:GISELLE 1968-04-09 03:00:00 TS -33.3421 172.737 main 133 50 P_______P_P_P_ SH321968 -33.3981 172.840 -1 -33.1465 172.261 57 976 -33.3697 172.906 4 -33.3981 172.840 TC 57 28 145
1968094S08156 1968 24 SP MM GISELE:GISELLE 1968-04-09 06:00:00 TS -34.5468 173.762 60 975 wellington main 55 9 O_______O_P_O_ jtwc_sh SH321968 -34.6000 173.900 -1 -34.4000 173.100 60 975 -34.5338 174.009 4 -34.6000 173.900 TC 55 30 145
1968094S08156 1968 24 SP MM GISELE:GISELLE 1968-04-09 09:00:00 TS -35.7840 174.832 main 17 0 P_______P_P_P_ SH321968 -35.7860 174.996 -1 -35.8002 174.119 60 975 -35.7547 175.060 4 -35.7934 174.988 TC 50 30 147
1968094S08156 1968 24 SP MM GISELE:GISELLE 1968-04-09 12:00:00 TS -37.0400 175.760 60 975 wellington main 0 0 O_______O_O_O_ jtwc_sh SH321968 -37.0000 175.900 -1 -37.2000 175.200 60 975 -37.0000 175.900 4 -37.0000 175.900 TC 45 28 153
1968094S08156 1968 24 SP MM GISELE:GISELLE 1968-04-09 15:00:00 TS -38.2881 176.430 main 0 0 P_______P_P_P_ SH321968 -38.2411 176.410 -1 -38.4311 176.476 62 972 -38.3434 176.387 4 -38.1837 176.467 TC 42 26 163
1968094S08156 1968 24 SP MM GISELE:GISELLE 1968-04-09 18:00:00 TS -39.5389 176.744 65 970 wellington main 0 0 O_______O_P_O_ jtwc_sh SH321968 -39.5000 176.600 -1 -39.6000 177.200 65 970 -39.6944 176.619 4 -39.4000 176.700 TC 40 26 176
1968094S08156 1968 24 SP MM GISELE:GISELLE 1968-04-09 21:00:00 TS -40.8345 176.658 main 33 33 P_______P_P_P_ SH321968 -40.8246 176.642 -1 -40.7851 176.666 67 967 -40.9487 176.640 4 -40.7896 176.701 TC 37 25 187
1968094S08156 1968 24 SP MM GISELE:GISELLE 1968-04-10 00:00:00 TS -42.0000 176.342 70 965 wellington main 83 83 O_______O_O_O_ jtwc_sh SH321968 -42.0000 176.500 -1 -42.0000 175.500 70 965 -42.0000 176.500 4 -42.0000 176.500 TC 35 21 192
1968094S08156 1968 24 SP MM GISELE:GISELLE 1968-04-10 03:00:00 TS -42.8770 176.082 main 155 155 P_______P_P_P_ SH321968 -42.8997 176.311 -1 -43.2802 174.400 67 967 -42.7722 176.247 4 -42.7346 176.302 TC 32 15 196
1968094S08156 1968 24 SP MM GISELE:GISELLE 1968-04-10 06:00:00 TS -43.4719 175.780 65 970 wellington main 209 200 O_______O_P_O_ jtwc_sh SH321968 -43.5000 176.000 -1 -44.6000 173.400 65 970 -43.3116 175.912 4 -43.2000 176.000 TC 30 9 204
1968094S08156 1968 24 SP MM GISELE:GISELLE 1968-04-10 09:00:00 TS -43.7380 175.566 main 200 159 P_________P_P_ SH321968 -43.8256 175.580 -1 -43.6952 175.521 4 -43.6056 175.584 TC 30 7 223
1968094S08156 1968 24 SP MM GISELE:GISELLE 1968-04-10 12:00:00 TS -44.0000 175.100 main 159 O_________O_O_ jtwc_sh SH321968 -44.0000 175.100 -1 -44.0000 175.100 4 -44.0000 175.100 TC 30 9 232

デジタル台風データ・検索

IBTrACS Databaseについて

本データベースは、米国NOAAが公開する1842年以降の世界の熱帯低気圧のベストトラックデータアーカイブInternational Best Track Archive for Climate Stewardship (IBTrACS)を、ウェブで閲覧しやすい形式に変換したものです。

最終更新日:2021-10-08